sensor_id;sensor_type;location;lat;lon;timestamp;temperature;humidity
10296;DHT22;5193;51.032;6.356;2023-07-31T00:00:13;16.60;99.90
10296;DHT22;5193;51.032;6.356;2023-07-31T00:02:44;16.60;99.90
10296;DHT22;5193;51.032;6.356;2023-07-31T00:05:10;16.60;99.90
10296;DHT22;5193;51.032;6.356;2023-07-31T00:07:36;16.60;99.90
10296;DHT22;5193;51.032;6.356;2023-07-31T00:10:06;16.70;99.90
10296;DHT22;5193;51.032;6.356;2023-07-31T00:12:32;16.60;99.90
10296;DHT22;5193;51.032;6.356;2023-07-31T00:14:58;16.60;99.90
10296;DHT22;5193;51.032;6.356;2023-07-31T00:17:24;16.60;99.90
10296;DHT22;5193;51.032;6.356;2023-07-31T00:19:50;16.60;99.90
10296;DHT22;5193;51.032;6.356;2023-07-31T00:22:16;16.60;99.90
10296;DHT22;5193;51.032;6.356;2023-07-31T00:24:42;16.60;99.90
10296;DHT22;5193;51.032;6.356;2023-07-31T00:27:08;16.60;99.90
10296;DHT22;5193;51.032;6.356;2023-07-31T00:29:33;16.60;99.90
10296;DHT22;5193;51.032;6.356;2023-07-31T00:31:59;16.60;99.90
10296;DHT22;5193;51.032;6.356;2023-07-31T00:34:26;16.60;99.90
10296;DHT22;5193;51.032;6.356;2023-07-31T00:36:52;16.60;99.90
10296;DHT22;5193;51.032;6.356;2023-07-31T00:39:17;16.60;99.90
10296;DHT22;5193;51.032;6.356;2023-07-31T00:41:46;16.60;99.90
10296;DHT22;5193;51.032;6.356;2023-07-31T00:44:12;16.60;99.90
10296;DHT22;5193;51.032;6.356;2023-07-31T00:46:38;16.70;99.90
10296;DHT22;5193;51.032;6.356;2023-07-31T00:49:04;16.60;99.90
10296;DHT22;5193;51.032;6.356;2023-07-31T00:51:30;16.60;99.90
10296;DHT22;5193;51.032;6.356;2023-07-31T00:53:56;16.60;99.90
10296;DHT22;5193;51.032;6.356;2023-07-31T00:56:22;16.60;99.90
10296;DHT22;5193;51.032;6.356;2023-07-31T01:28:07;16.50;99.90
10296;DHT22;5193;51.032;6.356;2023-07-31T01:30:36;16.40;99.90
10296;DHT22;5193;51.032;6.356;2023-07-31T01:33:03;16.40;99.90
10296;DHT22;5193;51.032;6.356;2023-07-31T01:35:34;16.40;99.90
10296;DHT22;5193;51.032;6.356;2023-07-31T01:38:00;16.50;99.90
10296;DHT22;5193;51.032;6.356;2023-07-31T01:40:26;16.50;99.90
10296;DHT22;5193;51.032;6.356;2023-07-31T01:42:51;16.40;99.90
10296;DHT22;5193;51.032;6.356;2023-07-31T01:45:17;16.50;99.90
10296;DHT22;5193;51.032;6.356;2023-07-31T01:47:43;16.50;99.90
10296;DHT22;5193;51.032;6.356;2023-07-31T01:50:09;16.50;99.90
10296;DHT22;5193;51.032;6.356;2023-07-31T01:52:35;16.50;99.90
10296;DHT22;5193;51.032;6.356;2023-07-31T01:55:00;16.50;99.90
10296;DHT22;5193;51.032;6.356;2023-07-31T01:57:26;16.50;99.90
10296;DHT22;5193;51.032;6.356;2023-07-31T01:59:52;16.50;99.90
10296;DHT22;5193;51.032;6.356;2023-07-31T02:40:27;16.70;99.90
10296;DHT22;5193;51.032;6.356;2023-07-31T02:42:53;16.70;99.90
10296;DHT22;5193;51.032;6.356;2023-07-31T02:45:19;16.70;99.90
10296;DHT22;5193;51.032;6.356;2023-07-31T02:47:45;16.70;99.90
10296;DHT22;5193;51.032;6.356;2023-07-31T02:50:10;16.70;99.90
10296;DHT22;5193;51.032;6.356;2023-07-31T02:52:36;16.80;99.90
10296;DHT22;5193;51.032;6.356;2023-07-31T02:55:01;16.80;99.90
10296;DHT22;5193;51.032;6.356;2023-07-31T02:57:27;16.80;99.90
10296;DHT22;5193;51.032;6.356;2023-07-31T02:59:53;16.80;99.90
10296;DHT22;5193;51.032;6.356;2023-07-31T03:02:18;16.80;99.90
10296;DHT22;5193;51.032;6.356;2023-07-31T03:04:44;16.80;99.90
10296;DHT22;5193;51.032;6.356;2023-07-31T03:07:09;16.80;99.90
10296;DHT22;5193;51.032;6.356;2023-07-31T03:09:35;16.80;99.90
10296;DHT22;5193;51.032;6.356;2023-07-31T03:12:01;16.80;99.90
10296;DHT22;5193;51.032;6.356;2023-07-31T03:14:26;16.80;99.90
10296;DHT22;5193;51.032;6.356;2023-07-31T03:16:52;16.80;99.90
10296;DHT22;5193;51.032;6.356;2023-07-31T03:19:18;16.70;99.90
10296;DHT22;5193;51.032;6.356;2023-07-31T03:21:43;16.70;99.90
10296;DHT22;5193;51.032;6.356;2023-07-31T03:24:09;16.70;99.90
10296;DHT22;5193;51.032;6.356;2023-07-31T03:26:37;16.70;99.90
10296;DHT22;5193;51.032;6.356;2023-07-31T03:29:03;16.70;99.90
10296;DHT22;5193;51.032;6.356;2023-07-31T03:31:29;16.70;99.90
10296;DHT22;5193;51.032;6.356;2023-07-31T03:33:54;16.70;99.90
10296;DHT22;5193;51.032;6.356;2023-07-31T03:36:21;16.70;99.90
10296;DHT22;5193;51.032;6.356;2023-07-31T03:38:47;16.70;99.90
10296;DHT22;5193;51.032;6.356;2023-07-31T04:29:17;16.70;99.90
10296;DHT22;5193;51.032;6.356;2023-07-31T04:32:10;16.80;99.90
10296;DHT22;5193;51.032;6.356;2023-07-31T04:35:06;16.70;99.90
10296;DHT22;5193;51.032;6.356;2023-07-31T04:37:33;16.80;99.90
10296;DHT22;5193;51.032;6.356;2023-07-31T04:40:00;16.80;99.90
10296;DHT22;5193;51.032;6.356;2023-07-31T04:42:37;16.80;99.90
10296;DHT22;5193;51.032;6.356;2023-07-31T04:45:23;16.80;99.90
10296;DHT22;5193;51.032;6.356;2023-07-31T04:47:51;16.90;99.90
10296;DHT22;5193;51.032;6.356;2023-07-31T04:50:30;16.90;99.90
10296;DHT22;5193;51.032;6.356;2023-07-31T04:53:05;16.90;99.90
10296;DHT22;5193;51.032;6.356;2023-07-31T04:55:41;16.90;99.90
10296;DHT22;5193;51.032;6.356;2023-07-31T04:58:07;16.90;99.90
10296;DHT22;5193;51.032;6.356;2023-07-31T05:00:35;16.90;99.90
10296;DHT22;5193;51.032;6.356;2023-07-31T05:03:02;17.00;99.90
10296;DHT22;5193;51.032;6.356;2023-07-31T05:05:28;17.00;99.90
10296;DHT22;5193;51.032;6.356;2023-07-31T05:07:53;17.00;99.90
10296;DHT22;5193;51.032;6.356;2023-07-31T05:10:19;17.00;99.90
10296;DHT22;5193;51.032;6.356;2023-07-31T05:12:45;17.00;99.90
10296;DHT22;5193;51.032;6.356;2023-07-31T05:15:10;17.00;99.90
10296;DHT22;5193;51.032;6.356;2023-07-31T05:17:37;17.00;99.90
10296;DHT22;5193;51.032;6.356;2023-07-31T05:20:02;17.00;99.90
10296;DHT22;5193;51.032;6.356;2023-07-31T05:22:28;17.00;99.90
10296;DHT22;5193;51.032;6.356;2023-07-31T05:24:54;17.00;99.90
10296;DHT22;5193;51.032;6.356;2023-07-31T05:27:20;17.00;99.90
10296;DHT22;5193;51.032;6.356;2023-07-31T05:29:45;17.00;99.90
10296;DHT22;5193;51.032;6.356;2023-07-31T05:32:11;17.00;99.90
10296;DHT22;5193;51.032;6.356;2023-07-31T05:34:37;17.00;99.90
10296;DHT22;5193;51.032;6.356;2023-07-31T05:37:03;17.00;99.90
10296;DHT22;5193;51.032;6.356;2023-07-31T05:39:28;16.90;99.90
10296;DHT22;5193;51.032;6.356;2023-07-31T05:41:54;16.90;99.90
10296;DHT22;5193;51.032;6.356;2023-07-31T05:44:20;16.90;99.90
10296;DHT22;5193;51.032;6.356;2023-07-31T05:46:45;16.90;99.90
10296;DHT22;5193;51.032;6.356;2023-07-31T05:49:11;16.90;99.90
10296;DHT22;5193;51.032;6.356;2023-07-31T05:51:36;16.90;99.90
10296;DHT22;5193;51.032;6.356;2023-07-31T05:54:02;16.90;99.90
10296;DHT22;5193;51.032;6.356;2023-07-31T05:56:28;16.90;99.90
10296;DHT22;5193;51.032;6.356;2023-07-31T05:58:54;16.90;99.90
10296;DHT22;5193;51.032;6.356;2023-07-31T06:01:19;16.80;99.90
10296;DHT22;5193;51.032;6.356;2023-07-31T06:03:46;16.90;99.90
10296;DHT22;5193;51.032;6.356;2023-07-31T06:06:12;16.90;99.90
10296;DHT22;5193;51.032;6.356;2023-07-31T06:08:39;16.90;99.90
10296;DHT22;5193;51.032;6.356;2023-07-31T06:11:05;16.90;99.90
10296;DHT22;5193;51.032;6.356;2023-07-31T06:13:31;16.90;99.90
10296;DHT22;5193;51.032;6.356;2023-07-31T06:15:57;16.90;99.90
10296;DHT22;5193;51.032;6.356;2023-07-31T06:18:24;16.90;99.90
10296;DHT22;5193;51.032;6.356;2023-07-31T06:20:50;17.00;99.90
10296;DHT22;5193;51.032;6.356;2023-07-31T06:23:19;17.00;99.90
10296;DHT22;5193;51.032;6.356;2023-07-31T06:25:45;17.00;99.90
10296;DHT22;5193;51.032;6.356;2023-07-31T06:28:11;17.10;99.90
10296;DHT22;5193;51.032;6.356;2023-07-31T06:30:37;17.10;99.90
10296;DHT22;5193;51.032;6.356;2023-07-31T06:33:02;17.20;99.90
10296;DHT22;5193;51.032;6.356;2023-07-31T06:35:28;17.30;99.90
10296;DHT22;5193;51.032;6.356;2023-07-31T06:37:54;17.30;99.90
10296;DHT22;5193;51.032;6.356;2023-07-31T06:40:19;17.30;99.90
10296;DHT22;5193;51.032;6.356;2023-07-31T06:42:45;17.40;99.90
10296;DHT22;5193;51.032;6.356;2023-07-31T06:45:11;17.40;99.90
10296;DHT22;5193;51.032;6.356;2023-07-31T06:47:37;17.50;99.90
10296;DHT22;5193;51.032;6.356;2023-07-31T06:50:03;17.50;99.90
10296;DHT22;5193;51.032;6.356;2023-07-31T06:52:29;17.50;99.90
10296;DHT22;5193;51.032;6.356;2023-07-31T06:55:35;17.50;99.90
10296;DHT22;5193;51.032;6.356;2023-07-31T06:57:54;17.50;99.90
10296;DHT22;5193;51.032;6.356;2023-07-31T07:00:22;17.50;99.90
10296;DHT22;5193;51.032;6.356;2023-07-31T07:02:48;17.50;99.90
10296;DHT22;5193;51.032;6.356;2023-07-31T07:05:18;17.50;99.90
10296;DHT22;5193;51.032;6.356;2023-07-31T07:07:44;17.50;99.90
10296;DHT22;5193;51.032;6.356;2023-07-31T07:10:10;17.50;99.90
10296;DHT22;5193;51.032;6.356;2023-07-31T07:12:39;17.50;99.90
10296;DHT22;5193;51.032;6.356;2023-07-31T07:15:07;17.40;99.90
10296;DHT22;5193;51.032;6.356;2023-07-31T07:17:34;17.40;99.90
10296;DHT22;5193;51.032;6.356;2023-07-31T07:20:01;17.30;99.90
10296;DHT22;5193;51.032;6.356;2023-07-31T07:22:27;17.30;99.90
10296;DHT22;5193;51.032;6.356;2023-07-31T07:24:53;17.30;99.90
10296;DHT22;5193;51.032;6.356;2023-07-31T07:27:34;17.30;99.90
10296;DHT22;5193;51.032;6.356;2023-07-31T07:30:01;17.20;99.90
10296;DHT22;5193;51.032;6.356;2023-07-31T07:32:27;17.20;99.90
10296;DHT22;5193;51.032;6.356;2023-07-31T07:34:53;17.20;99.90
10296;DHT22;5193;51.032;6.356;2023-07-31T07:37:24;17.10;99.90
10296;DHT22;5193;51.032;6.356;2023-07-31T07:39:50;17.10;99.90
10296;DHT22;5193;51.032;6.356;2023-07-31T07:42:16;17.10;99.90
10296;DHT22;5193;51.032;6.356;2023-07-31T07:44:42;17.10;99.90
10296;DHT22;5193;51.032;6.356;2023-07-31T07:47:08;17.10;99.90
10296;DHT22;5193;51.032;6.356;2023-07-31T07:49:34;17.10;99.90
10296;DHT22;5193;51.032;6.356;2023-07-31T07:52:00;17.10;99.90
10296;DHT22;5193;51.032;6.356;2023-07-31T07:54:26;17.20;99.90
10296;DHT22;5193;51.032;6.356;2023-07-31T07:56:52;17.20;99.90
10296;DHT22;5193;51.032;6.356;2023-07-31T07:59:18;17.20;99.90
10296;DHT22;5193;51.032;6.356;2023-07-31T08:01:46;17.30;99.90
10296;DHT22;5193;51.032;6.356;2023-07-31T08:04:12;17.20;99.90
10296;DHT22;5193;51.032;6.356;2023-07-31T08:06:38;17.20;99.90
10296;DHT22;5193;51.032;6.356;2023-07-31T08:09:04;17.20;99.90
10296;DHT22;5193;51.032;6.356;2023-07-31T08:11:32;17.10;99.90
10296;DHT22;5193;51.032;6.356;2023-07-31T08:13:58;17.10;99.90
10296;DHT22;5193;51.032;6.356;2023-07-31T08:16:23;17.10;99.90
10296;DHT22;5193;51.032;6.356;2023-07-31T08:18:49;17.20;99.90
10296;DHT22;5193;51.032;6.356;2023-07-31T08:21:15;17.20;99.90
10296;DHT22;5193;51.032;6.356;2023-07-31T08:23:41;17.20;99.90
10296;DHT22;5193;51.032;6.356;2023-07-31T08:26:07;17.20;99.90
10296;DHT22;5193;51.032;6.356;2023-07-31T08:28:32;17.30;99.90
10296;DHT22;5193;51.032;6.356;2023-07-31T08:30:58;17.30;99.90
10296;DHT22;5193;51.032;6.356;2023-07-31T08:33:24;17.30;99.90
10296;DHT22;5193;51.032;6.356;2023-07-31T08:35:50;17.30;99.90
10296;DHT22;5193;51.032;6.356;2023-07-31T08:38:19;17.40;99.90
10296;DHT22;5193;51.032;6.356;2023-07-31T08:40:45;17.40;99.90
10296;DHT22;5193;51.032;6.356;2023-07-31T08:43:10;17.40;99.90
10296;DHT22;5193;51.032;6.356;2023-07-31T08:45:37;17.40;99.90
10296;DHT22;5193;51.032;6.356;2023-07-31T08:48:04;17.50;99.90
10296;DHT22;5193;51.032;6.356;2023-07-31T08:50:30;17.50;99.90
10296;DHT22;5193;51.032;6.356;2023-07-31T08:53:00;17.50;99.90
10296;DHT22;5193;51.032;6.356;2023-07-31T08:55:28;17.40;99.90
10296;DHT22;5193;51.032;6.356;2023-07-31T08:57:58;17.50;99.90
10296;DHT22;5193;51.032;6.356;2023-07-31T09:00:24;17.60;99.90
10296;DHT22;5193;51.032;6.356;2023-07-31T09:03:09;17.60;99.90
10296;DHT22;5193;51.032;6.356;2023-07-31T09:05:39;17.70;99.90
10296;DHT22;5193;51.032;6.356;2023-07-31T09:08:09;17.80;99.90
10296;DHT22;5193;51.032;6.356;2023-07-31T09:10:35;17.80;99.90
10296;DHT22;5193;51.032;6.356;2023-07-31T09:13:02;17.80;99.90
10296;DHT22;5193;51.032;6.356;2023-07-31T09:15:28;17.80;99.90
10296;DHT22;5193;51.032;6.356;2023-07-31T09:18:03;17.90;99.90
10296;DHT22;5193;51.032;6.356;2023-07-31T09:20:29;18.00;99.90
10296;DHT22;5193;51.032;6.356;2023-07-31T09:22:55;18.10;99.90
10296;DHT22;5193;51.032;6.356;2023-07-31T09:25:26;18.20;99.90
10296;DHT22;5193;51.032;6.356;2023-07-31T09:28:01;18.30;99.90
10296;DHT22;5193;51.032;6.356;2023-07-31T09:30:27;18.40;99.90
10296;DHT22;5193;51.032;6.356;2023-07-31T09:33:04;18.40;99.90
10296;DHT22;5193;51.032;6.356;2023-07-31T09:35:35;18.40;99.90
10296;DHT22;5193;51.032;6.356;2023-07-31T09:38:08;18.50;99.90
10296;DHT22;5193;51.032;6.356;2023-07-31T09:40:36;18.50;99.90
10296;DHT22;5193;51.032;6.356;2023-07-31T09:43:04;18.50;99.90
10296;DHT22;5193;51.032;6.356;2023-07-31T09:45:34;18.50;99.90
10296;DHT22;5193;51.032;6.356;2023-07-31T09:47:59;18.40;99.90
10296;DHT22;5193;51.032;6.356;2023-07-31T09:50:25;18.40;99.90
10296;DHT22;5193;51.032;6.356;2023-07-31T09:52:52;18.30;99.90
10296;DHT22;5193;51.032;6.356;2023-07-31T09:55:19;18.30;99.90
10296;DHT22;5193;51.032;6.356;2023-07-31T09:57:46;18.30;99.90
10296;DHT22;5193;51.032;6.356;2023-07-31T10:03:50;18.30;99.90
10296;DHT22;5193;51.032;6.356;2023-07-31T10:06:16;18.30;99.90
10296;DHT22;5193;51.032;6.356;2023-07-31T10:08:46;18.40;99.90
10296;DHT22;5193;51.032;6.356;2023-07-31T10:11:13;18.40;99.90
10296;DHT22;5193;51.032;6.356;2023-07-31T10:13:41;18.50;99.90
10296;DHT22;5193;51.032;6.356;2023-07-31T10:16:07;18.50;99.90
10296;DHT22;5193;51.032;6.356;2023-07-31T10:18:34;18.60;99.90
10296;DHT22;5193;51.032;6.356;2023-07-31T10:21:01;18.60;99.90
10296;DHT22;5193;51.032;6.356;2023-07-31T10:23:27;18.60;99.90
10296;DHT22;5193;51.032;6.356;2023-07-31T10:25:55;18.60;99.90
10296;DHT22;5193;51.032;6.356;2023-07-31T10:28:23;18.70;99.90
10296;DHT22;5193;51.032;6.356;2023-07-31T10:30:51;18.80;99.90
10296;DHT22;5193;51.032;6.356;2023-07-31T10:33:18;18.90;99.90
10296;DHT22;5193;51.032;6.356;2023-07-31T10:35:47;18.90;99.90
10296;DHT22;5193;51.032;6.356;2023-07-31T10:38:13;18.90;99.90
10296;DHT22;5193;51.032;6.356;2023-07-31T10:40:41;18.90;99.90
10296;DHT22;5193;51.032;6.356;2023-07-31T10:43:07;18.90;99.90
10296;DHT22;5193;51.032;6.356;2023-07-31T10:45:38;18.80;99.90
10296;DHT22;5193;51.032;6.356;2023-07-31T10:48:06;18.80;99.90
10296;DHT22;5193;51.032;6.356;2023-07-31T10:50:37;18.80;99.90
10296;DHT22;5193;51.032;6.356;2023-07-31T10:53:04;18.90;99.90
10296;DHT22;5193;51.032;6.356;2023-07-31T10:55:32;19.10;99.90
10296;DHT22;5193;51.032;6.356;2023-07-31T10:58:09;19.20;99.90
10296;DHT22;5193;51.032;6.356;2023-07-31T11:00:41;19.30;99.90
10296;DHT22;5193;51.032;6.356;2023-07-31T11:03:19;19.60;99.90
10296;DHT22;5193;51.032;6.356;2023-07-31T11:08:27;19.80;99.90
10296;DHT22;5193;51.032;6.356;2023-07-31T11:15:54;20.00;99.90
10296;DHT22;5193;51.032;6.356;2023-07-31T11:18:20;20.10;99.90
10296;DHT22;5193;51.032;6.356;2023-07-31T11:20:46;20.10;99.90
10296;DHT22;5193;51.032;6.356;2023-07-31T11:33:13;20.00;99.90
10296;DHT22;5193;51.032;6.356;2023-07-31T11:36:02;20.00;99.90
10296;DHT22;5193;51.032;6.356;2023-07-31T11:38:37;20.00;99.90
10296;DHT22;5193;51.032;6.356;2023-07-31T11:41:35;20.00;99.90
10296;DHT22;5193;51.032;6.356;2023-07-31T11:44:01;20.00;99.90
10296;DHT22;5193;51.032;6.356;2023-07-31T11:46:34;19.90;99.90
10296;DHT22;5193;51.032;6.356;2023-07-31T11:49:04;19.90;99.90
10296;DHT22;5193;51.032;6.356;2023-07-31T11:51:34;19.90;99.90
10296;DHT22;5193;51.032;6.356;2023-07-31T11:54:03;19.90;99.90
10296;DHT22;5193;51.032;6.356;2023-07-31T11:56:30;19.90;99.90
10296;DHT22;5193;51.032;6.356;2023-07-31T11:58:59;19.90;99.90
10296;DHT22;5193;51.032;6.356;2023-07-31T12:01:28;19.80;99.90
10296;DHT22;5193;51.032;6.356;2023-07-31T12:03:54;19.80;99.90
10296;DHT22;5193;51.032;6.356;2023-07-31T12:06:21;19.80;99.90
10296;DHT22;5193;51.032;6.356;2023-07-31T12:08:51;19.70;99.90
10296;DHT22;5193;51.032;6.356;2023-07-31T12:11:17;19.70;99.90
10296;DHT22;5193;51.032;6.356;2023-07-31T12:13:43;19.60;99.90
10296;DHT22;5193;51.032;6.356;2023-07-31T12:16:09;19.60;99.90
10296;DHT22;5193;51.032;6.356;2023-07-31T12:18:37;19.60;99.90
10296;DHT22;5193;51.032;6.356;2023-07-31T12:21:08;19.60;99.90
10296;DHT22;5193;51.032;6.356;2023-07-31T12:23:39;19.50;99.90
10296;DHT22;5193;51.032;6.356;2023-07-31T12:26:15;19.60;99.90
10296;DHT22;5193;51.032;6.356;2023-07-31T12:28:45;19.70;99.90
10296;DHT22;5193;51.032;6.356;2023-07-31T12:31:13;19.90;99.90
10296;DHT22;5193;51.032;6.356;2023-07-31T12:33:40;20.10;99.90
10296;DHT22;5193;51.032;6.356;2023-07-31T12:36:09;20.40;99.90
10296;DHT22;5193;51.032;6.356;2023-07-31T12:38:36;20.60;99.90
10296;DHT22;5193;51.032;6.356;2023-07-31T12:41:04;20.70;99.90
10296;DHT22;5193;51.032;6.356;2023-07-31T12:43:42;20.70;99.90
10296;DHT22;5193;51.032;6.356;2023-07-31T12:46:10;20.70;99.90
10296;DHT22;5193;51.032;6.356;2023-07-31T12:48:39;20.70;99.90
10296;DHT22;5193;51.032;6.356;2023-07-31T12:51:14;20.60;99.90
10296;DHT22;5193;51.032;6.356;2023-07-31T12:53:41;20.50;99.90
10296;DHT22;5193;51.032;6.356;2023-07-31T12:56:07;20.50;99.90
10296;DHT22;5193;51.032;6.356;2023-07-31T12:58:34;20.40;99.90
10296;DHT22;5193;51.032;6.356;2023-07-31T13:01:02;20.40;99.90
10296;DHT22;5193;51.032;6.356;2023-07-31T13:03:29;20.30;99.90
10296;DHT22;5193;51.032;6.356;2023-07-31T13:05:57;20.30;99.90
10296;DHT22;5193;51.032;6.356;2023-07-31T13:08:25;20.40;99.90
10296;DHT22;5193;51.032;6.356;2023-07-31T13:10:52;20.40;99.90
10296;DHT22;5193;51.032;6.356;2023-07-31T13:13:19;20.60;99.90
10296;DHT22;5193;51.032;6.356;2023-07-31T13:15:45;20.70;99.90
10296;DHT22;5193;51.032;6.356;2023-07-31T13:18:11;20.80;99.90
10296;DHT22;5193;51.032;6.356;2023-07-31T13:20:38;21.10;99.90
10296;DHT22;5193;51.032;6.356;2023-07-31T13:23:03;21.30;99.90
10296;DHT22;5193;51.032;6.356;2023-07-31T13:25:29;21.30;99.90
10296;DHT22;5193;51.032;6.356;2023-07-31T13:27:55;21.50;99.90
10296;DHT22;5193;51.032;6.356;2023-07-31T13:30:22;21.60;99.90
10296;DHT22;5193;51.032;6.356;2023-07-31T13:32:48;21.80;99.90
10296;DHT22;5193;51.032;6.356;2023-07-31T13:35:14;22.00;99.90
10296;DHT22;5193;51.032;6.356;2023-07-31T13:37:40;22.00;99.90
10296;DHT22;5193;51.032;6.356;2023-07-31T13:40:08;22.00;99.90
10296;DHT22;5193;51.032;6.356;2023-07-31T13:42:34;22.00;99.90
10296;DHT22;5193;51.032;6.356;2023-07-31T13:44:59;22.10;99.90
10296;DHT22;5193;51.032;6.356;2023-07-31T13:47:25;22.10;99.90
10296;DHT22;5193;51.032;6.356;2023-07-31T13:49:51;22.00;99.90
10296;DHT22;5193;51.032;6.356;2023-07-31T13:52:26;21.90;99.90
10296;DHT22;5193;51.032;6.356;2023-07-31T13:55:01;21.70;99.90
10296;DHT22;5193;51.032;6.356;2023-07-31T14:01:03;21.40;99.90
10296;DHT22;5193;51.032;6.356;2023-07-31T14:03:52;21.20;99.90
10296;DHT22;5193;51.032;6.356;2023-07-31T14:09:57;21.00;99.90
10296;DHT22;5193;51.032;6.356;2023-07-31T14:22:57;20.60;99.90
10296;DHT22;5193;51.032;6.356;2023-07-31T15:10:42;20.80;99.90
10296;DHT22;5193;51.032;6.356;2023-07-31T15:16:57;20.70;99.90
10296;DHT22;5193;51.032;6.356;2023-07-31T15:20:08;20.70;99.90
10296;DHT22;5193;51.032;6.356;2023-07-31T15:22:55;20.70;99.90
10296;DHT22;5193;51.032;6.356;2023-07-31T15:36:08;20.60;99.90
10296;DHT22;5193;51.032;6.356;2023-07-31T15:42:33;20.50;99.90
10296;DHT22;5193;51.032;6.356;2023-07-31T15:46:04;20.40;99.90
10296;DHT22;5193;51.032;6.356;2023-07-31T15:52:31;20.20;99.90
10296;DHT22;5193;51.032;6.356;2023-07-31T15:55:03;20.10;99.90
10296;DHT22;5193;51.032;6.356;2023-07-31T15:57:38;20.00;99.90
10296;DHT22;5193;51.032;6.356;2023-07-31T16:00:26;19.90;99.90
10296;DHT22;5193;51.032;6.356;2023-07-31T16:03:01;19.80;99.90
10296;DHT22;5193;51.032;6.356;2023-07-31T16:05:31;19.70;99.90
10296;DHT22;5193;51.032;6.356;2023-07-31T16:08:00;19.60;99.90
10296;DHT22;5193;51.032;6.356;2023-07-31T16:10:28;19.50;99.90
10296;DHT22;5193;51.032;6.356;2023-07-31T16:13:04;19.50;99.90
10296;DHT22;5193;51.032;6.356;2023-07-31T16:15:35;19.40;99.90
10296;DHT22;5193;51.032;6.356;2023-07-31T16:18:09;19.30;99.90
10296;DHT22;5193;51.032;6.356;2023-07-31T16:20:58;19.30;99.90
10296;DHT22;5193;51.032;6.356;2023-07-31T16:23:27;19.30;99.90
10296;DHT22;5193;51.032;6.356;2023-07-31T16:25:55;19.20;99.90
10296;DHT22;5193;51.032;6.356;2023-07-31T16:28:22;19.10;99.90
10296;DHT22;5193;51.032;6.356;2023-07-31T16:30:48;19.10;99.90
10296;DHT22;5193;51.032;6.356;2023-07-31T16:33:17;19.00;99.90
10296;DHT22;5193;51.032;6.356;2023-07-31T16:35:44;19.00;99.90
10296;DHT22;5193;51.032;6.356;2023-07-31T16:38:12;19.10;99.90
10296;DHT22;5193;51.032;6.356;2023-07-31T16:40:39;19.00;99.90
10296;DHT22;5193;51.032;6.356;2023-07-31T16:43:07;19.00;99.90
10296;DHT22;5193;51.032;6.356;2023-07-31T16:45:42;19.00;99.90
10296;DHT22;5193;51.032;6.356;2023-07-31T16:48:09;18.90;99.90
10296;DHT22;5193;51.032;6.356;2023-07-31T16:50:37;18.90;99.90
10296;DHT22;5193;51.032;6.356;2023-07-31T16:53:05;18.90;99.90
10296;DHT22;5193;51.032;6.356;2023-07-31T16:55:34;18.90;99.90
10296;DHT22;5193;51.032;6.356;2023-07-31T16:58:02;18.90;99.90
10296;DHT22;5193;51.032;6.356;2023-07-31T17:00:29;18.80;99.90
10296;DHT22;5193;51.032;6.356;2023-07-31T17:02:55;18.80;99.90
10296;DHT22;5193;51.032;6.356;2023-07-31T17:05:22;18.80;99.90
10296;DHT22;5193;51.032;6.356;2023-07-31T17:07:49;18.70;99.90
10296;DHT22;5193;51.032;6.356;2023-07-31T17:10:15;18.60;99.90
10296;DHT22;5193;51.032;6.356;2023-07-31T17:12:42;18.60;99.90
10296;DHT22;5193;51.032;6.356;2023-07-31T17:15:08;18.50;99.90
10296;DHT22;5193;51.032;6.356;2023-07-31T17:17:34;18.50;99.90
10296;DHT22;5193;51.032;6.356;2023-07-31T17:20:00;18.40;99.90
10296;DHT22;5193;51.032;6.356;2023-07-31T17:22:26;18.40;99.90
10296;DHT22;5193;51.032;6.356;2023-07-31T17:24:51;18.30;99.90
10296;DHT22;5193;51.032;6.356;2023-07-31T17:27:18;18.30;99.90
10296;DHT22;5193;51.032;6.356;2023-07-31T17:29:44;18.20;99.90
10296;DHT22;5193;51.032;6.356;2023-07-31T17:32:10;18.20;99.90
10296;DHT22;5193;51.032;6.356;2023-07-31T17:34:37;18.20;99.90
10296;DHT22;5193;51.032;6.356;2023-07-31T17:37:03;18.10;99.90
10296;DHT22;5193;51.032;6.356;2023-07-31T17:39:29;18.10;99.90
10296;DHT22;5193;51.032;6.356;2023-07-31T17:41:57;18.10;99.90
10296;DHT22;5193;51.032;6.356;2023-07-31T17:44:24;18.00;99.90
10296;DHT22;5193;51.032;6.356;2023-07-31T17:46:49;18.00;99.90
10296;DHT22;5193;51.032;6.356;2023-07-31T17:49:17;18.00;99.90
10296;DHT22;5193;51.032;6.356;2023-07-31T17:51:42;17.90;99.90
10296;DHT22;5193;51.032;6.356;2023-07-31T17:54:08;17.90;99.90
10296;DHT22;5193;51.032;6.356;2023-07-31T17:56:34;17.90;99.90
10296;DHT22;5193;51.032;6.356;2023-07-31T17:59:06;17.90;99.90
10296;DHT22;5193;51.032;6.356;2023-07-31T18:01:32;17.90;99.90
10296;DHT22;5193;51.032;6.356;2023-07-31T18:03:58;17.90;99.90
10296;DHT22;5193;51.032;6.356;2023-07-31T18:06:23;17.80;99.90
10296;DHT22;5193;51.032;6.356;2023-07-31T18:08:49;17.80;99.90
10296;DHT22;5193;51.032;6.356;2023-07-31T18:11:14;17.80;99.90
10296;DHT22;5193;51.032;6.356;2023-07-31T18:13:41;17.80;99.90
10296;DHT22;5193;51.032;6.356;2023-07-31T18:16:07;17.80;99.90
10296;DHT22;5193;51.032;6.356;2023-07-31T18:18:33;17.70;99.90
10296;DHT22;5193;51.032;6.356;2023-07-31T18:20:58;17.70;99.90
10296;DHT22;5193;51.032;6.356;2023-07-31T18:23:29;17.70;99.90
10296;DHT22;5193;51.032;6.356;2023-07-31T18:25:55;17.70;99.90
10296;DHT22;5193;51.032;6.356;2023-07-31T18:28:55;17.70;99.90
10296;DHT22;5193;51.032;6.356;2023-07-31T18:56:07;17.50;99.90
10296;DHT22;5193;51.032;6.356;2023-07-31T18:58:33;17.50;99.90
10296;DHT22;5193;51.032;6.356;2023-07-31T19:00:58;17.50;99.90
10296;DHT22;5193;51.032;6.356;2023-07-31T19:03:24;17.50;99.90
10296;DHT22;5193;51.032;6.356;2023-07-31T19:05:50;17.40;99.90
10296;DHT22;5193;51.032;6.356;2023-07-31T19:08:16;17.40;99.90
10296;DHT22;5193;51.032;6.356;2023-07-31T19:10:42;17.40;99.90
10296;DHT22;5193;51.032;6.356;2023-07-31T19:13:09;17.40;99.90
10296;DHT22;5193;51.032;6.356;2023-07-31T19:15:36;17.50;99.90
10296;DHT22;5193;51.032;6.356;2023-07-31T19:18:05;17.40;99.90
10296;DHT22;5193;51.032;6.356;2023-07-31T19:20:34;17.50;99.90
10296;DHT22;5193;51.032;6.356;2023-07-31T19:23:02;17.40;99.90
10296;DHT22;5193;51.032;6.356;2023-07-31T19:25:29;17.40;99.90
10296;DHT22;5193;51.032;6.356;2023-07-31T19:27:55;17.40;99.90
10296;DHT22;5193;51.032;6.356;2023-07-31T19:30:23;17.40;99.90
10296;DHT22;5193;51.032;6.356;2023-07-31T19:32:49;17.40;99.90
10296;DHT22;5193;51.032;6.356;2023-07-31T19:35:16;17.40;99.90
10296;DHT22;5193;51.032;6.356;2023-07-31T19:37:42;17.40;99.90
10296;DHT22;5193;51.032;6.356;2023-07-31T19:40:08;17.40;99.90
10296;DHT22;5193;51.032;6.356;2023-07-31T19:42:34;17.40;99.90
10296;DHT22;5193;51.032;6.356;2023-07-31T19:45:02;17.40;99.90
10296;DHT22;5193;51.032;6.356;2023-07-31T19:47:28;17.40;99.90
10296;DHT22;5193;51.032;6.356;2023-07-31T19:49:55;17.40;99.90
10296;DHT22;5193;51.032;6.356;2023-07-31T19:52:20;17.40;99.90
10296;DHT22;5193;51.032;6.356;2023-07-31T19:54:46;17.40;99.90
10296;DHT22;5193;51.032;6.356;2023-07-31T19:57:12;17.40;99.90